Time;durP1;ratioP1;P1;durP2;ratioP2;P2;SDS_P1;SDS_P2;PMS_P1;PMS_P2;Temp;Humidity;BMP_temperature;BMP_pressure;BME280_temperature;BME280_humidity;BME280_pressure;Samples;Min_cycle;Max_cycle;Signal;HPM_P1;HPM_P2
2021/03/07 00:00:29;;;;;;;27.07;12.87;;;-0.80;99.90;;;;;;5053434;28;20075;-67
2021/03/07 00:02:56;;;;;;;27.30;14.03;;;-0.80;99.90;;;;;;5053040;28;20064;-66
2021/03/07 00:05:22;;;;;;;22.83;12.27;;;-0.80;99.90;;;;;;5053519;28;20374;-67
2021/03/07 00:07:52;;;;;;;27.83;13.67;;;-0.80;99.90;;;;;;5053481;28;20641;-67
2021/03/07 00:10:19;;;;;;;25.30;12.93;;;-0.80;99.90;;;;;;5051885;28;20048;-67
2021/03/07 00:12:48;;;;;;;28.83;14.17;;;-0.90;99.90;;;;;;5052394;28;20060;-67
2021/03/07 00:15:16;;;;;;;24.97;12.53;;;-1.00;99.90;;;;;;5053326;28;20052;-67
2021/03/07 00:17:44;;;;;;;25.60;12.37;;;-1.00;99.90;;;;;;5053573;28;20051;-66
2021/03/07 00:20:13;;;;;;;30.93;12.60;;;-1.10;99.90;;;;;;5053498;28;20052;-67
2021/03/07 00:22:40;;;;;;;26.30;11.47;;;-1.10;99.90;;;;;;5052377;28;20142;-67
2021/03/07 00:25:09;;;;;;;21.53;11.10;;;-1.00;99.90;;;;;;5053485;28;20056;-66
2021/03/07 00:27:36;;;;;;;25.13;11.77;;;-1.00;99.90;;;;;;5052284;28;20079;-67
2021/03/07 00:30:03;;;;;;;23.53;11.37;;;-1.00;99.90;;;;;;5052944;28;20056;-67
2021/03/07 00:32:30;;;;;;;25.07;12.53;;;-1.00;99.90;;;;;;5051740;28;20130;-67
2021/03/07 00:34:57;;;;;;;22.20;11.87;;;-1.00;99.90;;;;;;5052913;28;20049;-67
2021/03/07 00:37:24;;;;;;;25.03;12.87;;;-1.00;99.90;;;;;;5052570;28;20056;-67
2021/03/07 00:39:50;;;;;;;26.97;11.53;;;-1.10;99.90;;;;;;5053170;28;20056;-67
2021/03/07 00:42:17;;;;;;;23.37;11.60;;;-1.20;99.90;;;;;;5065794;28;20060;-66
2021/03/07 00:44:43;;;;;;;24.87;12.00;;;-1.20;99.90;;;;;;5073039;28;20053;-67
2021/03/07 00:47:11;;;;;;;27.07;11.33;;;-1.20;99.90;;;;;;5057752;28;20127;-67
2021/03/07 00:49:37;;;;;;;23.23;11.00;;;-1.20;99.90;;;;;;5053781;28;20076;-67
2021/03/07 00:52:05;;;;;;;27.37;11.90;;;-1.10;99.90;;;;;;5053917;28;20101;-67
2021/03/07 00:54:32;;;;;;;24.87;11.80;;;-1.10;99.90;;;;;;5052817;28;20055;-67
2021/03/07 00:56:59;;;;;;;23.27;10.97;;;-1.20;99.90;;;;;;5052999;28;20059;-67
2021/03/07 00:59:25;;;;;;;25.80;11.97;;;-1.20;99.90;;;;;;5052607;28;20087;-67
2021/03/07 01:01:52;;;;;;;24.93;11.93;;;-1.30;99.90;;;;;;5052213;28;20542;-67
2021/03/07 01:04:18;;;;;;;23.17;10.57;;;-1.30;99.90;;;;;;5051675;28;20048;-67
2021/03/07 01:06:45;;;;;;;19.87;10.03;;;-1.30;99.90;;;;;;5051682;28;20327;-67
2021/03/07 01:09:13;;;;;;;21.63;10.30;;;-1.30;99.90;;;;;;5051641;28;20410;-66
2021/03/07 01:11:40;;;;;;;21.37;10.23;;;-1.30;99.90;;;;;;5052325;28;20053;-66
2021/03/07 01:14:07;;;;;;;18.70;9.47;;;-1.40;99.90;;;;;;5050797;28;20052;-67
2021/03/07 01:16:34;;;;;;;18.70;9.37;;;-1.50;99.90;;;;;;5052094;28;20044;-67
2021/03/07 01:19:01;;;;;;;22.90;9.30;;;-1.50;99.90;;;;;;5051837;28;20094;-67
2021/03/07 01:21:27;;;;;;;18.27;9.83;;;-1.50;99.90;;;;;;5051780;28;20040;-66
2021/03/07 01:23:54;;;;;;;20.33;9.20;;;-1.50;99.90;;;;;;5051286;28;20459;-67
2021/03/07 01:26:21;;;;;;;21.40;9.07;;;-1.60;99.90;;;;;;5051982;28;20203;-67
2021/03/07 01:28:48;;;;;;;19.77;8.67;;;-1.50;99.90;;;;;;5053291;28;20059;-67
2021/03/07 01:31:15;;;;;;;24.30;9.60;;;-1.50;99.90;;;;;;5064097;28;20459;-66
2021/03/07 01:33:41;;;;;;;18.43;9.07;;;-1.60;99.90;;;;;;5067165;28;20075;-67
2021/03/07 01:36:08;;;;;;;17.63;8.27;;;-1.60;99.90;;;;;;5052970;28;20142;-66
2021/03/07 01:38:34;;;;;;;20.20;8.77;;;-1.60;99.90;;;;;;5051250;28;20051;-67
2021/03/07 01:41:01;;;;;;;20.43;9.57;;;-1.60;99.90;;;;;;5051555;28;20575;-67
2021/03/07 01:43:28;;;;;;;18.90;8.73;;;-1.60;99.90;;;;;;5051004;28;20053;-67
2021/03/07 01:45:55;;;;;;;21.67;10.03;;;-1.60;99.90;;;;;;5052839;28;20078;-67
2021/03/07 01:48:22;;;;;;;20.13;9.37;;;-1.60;99.90;;;;;;5051747;28;20048;-66
2021/03/07 01:50:50;;;;;;;16.80;8.37;;;-1.70;99.90;;;;;;5051162;28;20060;-67
2021/03/07 01:53:18;;;;;;;20.57;9.70;;;-1.70;99.90;;;;;;5050529;28;20445;-66
2021/03/07 01:55:45;;;;;;;26.90;9.37;;;-1.80;99.90;;;;;;5052991;28;20056;-67
2021/03/07 01:58:14;;;;;;;19.13;8.80;;;-1.80;99.90;;;;;;5053567;28;20508;-67
2021/03/07 02:00:42;;;;;;;21.00;9.63;;;-1.80;99.90;;;;;;5051564;28;20542;-66
2021/03/07 02:03:09;;;;;;;18.97;8.90;;;-1.70;99.90;;;;;;5050454;28;20459;-67
2021/03/07 02:05:35;;;;;;;19.87;8.57;;;-1.80;99.90;;;;;;5057634;28;20059;-66
2021/03/07 02:08:03;;;;;;;21.07;9.53;;;-1.80;99.90;;;;;;5064402;28;20044;-66
2021/03/07 02:10:33;;;;;;;19.90;9.33;;;-1.90;99.90;;;;;;5059094;28;20404;-66
2021/03/07 02:13:03;;;;;;;19.90;9.60;;;-1.90;99.90;;;;;;5058543;28;20053;-67
2021/03/07 02:15:33;;;;;;;18.67;9.97;;;-1.90;99.90;;;;;;5060610;28;20121;-66
2021/03/07 02:18:00;;;;;;;20.67;9.83;;;-1.90;99.90;;;;;;5064604;28;20044;-66
2021/03/07 02:20:29;;;;;;;19.33;9.63;;;-1.90;99.90;;;;;;5060531;28;20049;-67
2021/03/07 02:23:01;;;;;;;21.17;10.30;;;-1.90;99.90;;;;;;5057119;28;20048;-67
2021/03/07 02:25:29;;;;;;;25.00;9.50;;;-2.00;99.90;;;;;;5051936;28;20102;-67
2021/03/07 02:27:56;;;;;;;19.50;9.60;;;-2.00;99.90;;;;;;5051127;28;20056;-67
2021/03/07 02:30:24;;;;;;;20.00;8.73;;;-2.00;99.90;;;;;;5050586;28;21401;-66
2021/03/07 02:33:00;;;;;;;22.00;9.50;;;-2.00;99.90;;;;;;5049376;28;20067;-66
2021/03/07 02:35:28;;;;;;;19.10;9.47;;;-2.00;99.90;;;;;;5051065;28;20052;-67
2021/03/07 02:37:58;;;;;;;21.60;8.40;;;-1.90;99.90;;;;;;5050947;28;20344;-67
2021/03/07 02:40:28;;;;;;;21.23;10.10;;;-2.00;99.90;;;;;;5051576;28;20493;-67
2021/03/07 02:42:59;;;;;;;19.30;9.20;;;-2.00;99.90;;;;;;5050269;28;20497;-66
2021/03/07 02:45:26;;;;;;;21.67;9.67;;;-2.00;99.90;;;;;;5051276;28;20412;-67
2021/03/07 02:47:55;;;;;;;20.93;9.80;;;-2.10;99.90;;;;;;5051455;28;20429;-66
2021/03/07 02:50:25;;;;;;;18.73;8.87;;;-2.20;99.90;;;;;;5050809;28;20052;-67
2021/03/07 02:52:56;;;;;;;21.87;9.67;;;-2.30;99.90;;;;;;5050068;28;20086;-67
2021/03/07 02:55:28;;;;;;;22.70;8.90;;;-2.30;99.90;;;;;;5050907;28;20044;-66
2021/03/07 02:57:58;;;;;;;21.60;9.43;;;-2.30;99.90;;;;;;5051340;28;20462;-67
2021/03/07 03:00:24;;;;;;;19.40;8.77;;;-2.30;99.90;;;;;;5050508;28;20093;-67
2021/03/07 03:02:54;;;;;;;16.90;8.23;;;-2.30;99.90;;;;;;5049829;28;20055;-65
2021/03/07 03:05:22;;;;;;;19.93;8.47;;;-2.20;99.90;;;;;;5050657;28;20493;-67
2021/03/07 03:07:48;;;;;;;21.53;8.77;;;-2.20;99.90;;;;;;5050598;28;20076;-67
2021/03/07 03:10:15;;;;;;;19.90;8.80;;;-2.20;99.90;;;;;;5050063;28;20044;-67
2021/03/07 03:12:44;;;;;;;20.27;10.00;;;-2.20;99.90;;;;;;5049688;28;20365;-67
2021/03/07 03:15:13;;;;;;;19.73;8.50;;;-2.20;99.90;;;;;;5051254;28;20812;-66
2021/03/07 03:17:41;;;;;;;20.17;8.50;;;-2.30;99.90;;;;;;5050750;28;20052;-67
2021/03/07 03:20:13;;;;;;;18.47;9.20;;;-2.30;99.90;;;;;;5050330;28;20083;-67
2021/03/07 03:22:41;;;;;;;18.67;8.63;;;-2.20;99.90;;;;;;5049571;28;20103;-66
2021/03/07 03:25:09;;;;;;;21.10;9.13;;;-2.00;99.90;;;;;;5051042;28;20045;-67
2021/03/07 03:27:36;;;;;;;26.40;10.77;;;-1.80;99.90;;;;;;5049946;28;20049;-66
2021/03/07 03:30:08;;;;;;;20.97;9.57;;;-2.00;99.90;;;;;;5050514;28;20103;-66
2021/03/07 03:32:35;;;;;;;16.97;8.47;;;-2.00;99.90;;;;;;5049457;28;20051;-67
2021/03/07 03:35:04;;;;;;;21.40;9.80;;;-2.00;99.90;;;;;;5050313;28;20086;-66
2021/03/07 03:37:30;;;;;;;21.07;9.40;;;-2.10;99.90;;;;;;5050656;28;20045;-67
2021/03/07 03:39:58;;;;;;;21.20;9.37;;;-2.00;99.90;;;;;;5050213;28;20409;-67
2021/03/07 03:42:25;;;;;;;20.17;9.23;;;-2.10;99.90;;;;;;5049708;28;20054;-66
2021/03/07 03:44:52;;;;;;;21.83;9.17;;;-2.00;99.90;;;;;;5052282;28;20057;-67
2021/03/07 03:47:21;;;;;;;16.83;8.97;;;-2.10;99.90;;;;;;5054063;28;20052;-67
2021/03/07 03:49:54;;;;;;;24.30;10.00;;;-1.90;99.90;;;;;;5053213;28;20049;-67
2021/03/07 03:52:22;;;;;;;26.17;8.77;;;-2.10;99.90;;;;;;5053226;28;20052;-66
2021/03/07 03:54:53;;;;;;;17.60;8.90;;;-1.80;99.90;;;;;;5054171;28;20291;-67
2021/03/07 03:57:24;;;;;;;17.73;8.87;;;-2.00;99.90;;;;;;5053429;28;20110;-67
2021/03/07 03:59:56;;;;;;;20.17;9.17;;;-2.20;99.90;;;;;;5053226;28;20053;-66
2021/03/07 04:02:24;;;;;;;19.80;9.50;;;-2.20;99.90;;;;;;5052789;28;20055;-67
2021/03/07 04:04:53;;;;;;;19.10;9.73;;;-2.30;99.90;;;;;;5053480;28;20053;-66
2021/03/07 04:07:20;;;;;;;20.47;9.40;;;-2.40;99.90;;;;;;5060444;28;20049;-67
2021/03/07 04:09:47;;;;;;;22.57;9.27;;;-2.50;99.90;;;;;;5058895;28;20067;-66
2021/03/07 04:12:14;;;;;;;22.13;9.43;;;-2.60;99.90;;;;;;5053082;28;20060;-65
2021/03/07 04:14:42;;;;;;;18.30;8.67;;;-2.50;99.90;;;;;;5053113;28;20055;-67
2021/03/07 04:17:10;;;;;;;20.97;9.50;;;-2.60;99.90;;;;;;5053091;28;20052;-67
2021/03/07 04:19:37;;;;;;;18.23;8.33;;;-2.50;99.90;;;;;;5053345;28;20052;-65
2021/03/07 04:22:05;;;;;;;17.87;9.03;;;-2.50;99.90;;;;;;5053223;28;20056;-66
2021/03/07 04:24:31;;;;;;;20.67;9.73;;;-2.50;99.90;;;;;;5053216;28;20040;-67
2021/03/07 04:26:59;;;;;;;20.80;9.20;;;-2.60;99.90;;;;;;5053088;28;20060;-66
2021/03/07 04:29:27;;;;;;;22.53;10.03;;;-2.60;99.90;;;;;;5053113;28;20472;-67
2021/03/07 04:31:55;;;;;;;22.93;10.07;;;-2.70;99.90;;;;;;5053370;28;20147;-66
2021/03/07 04:34:22;;;;;;;20.77;9.77;;;-2.70;99.90;;;;;;5052480;28;20105;-66
2021/03/07 04:36:50;;;;;;;23.00;10.53;;;-2.70;99.90;;;;;;5052698;28;20127;-67
2021/03/07 04:39:18;;;;;;;25.37;9.90;;;-2.70;99.90;;;;;;5052381;28;20052;-66
2021/03/07 04:41:44;;;;;;;20.10;9.87;;;-2.70;99.90;;;;;;5052673;28;20049;-66
2021/03/07 04:44:11;;;;;;;20.97;10.17;;;-2.60;99.90;;;;;;5051554;28;20056;-66
2021/03/07 04:46:38;;;;;;;18.97;9.40;;;-2.70;99.90;;;;;;5052017;28;20489;-66
2021/03/07 04:49:04;;;;;;;20.07;8.73;;;-2.80;99.90;;;;;;5052612;28;20052;-66
2021/03/07 04:51:31;;;;;;;20.90;10.00;;;-2.80;99.90;;;;;;5052665;28;20536;-67
2021/03/07 04:53:58;;;;;;;21.07;9.80;;;-2.80;99.90;;;;;;5051929;28;20044;-66
2021/03/07 04:56:27;;;;;;;18.20;8.53;;;-2.80;99.90;;;;;;5052911;28;20060;-66
2021/03/07 04:58:54;;;;;;;17.80;8.57;;;-2.80;99.90;;;;;;5053632;28;20135;-66
2021/03/07 05:01:20;;;;;;;17.43;9.17;;;-2.80;99.90;;;;;;5052367;28;20519;-66
2021/03/07 05:03:47;;;;;;;17.23;8.50;;;-2.80;99.90;;;;;;5051567;28;20052;-66
2021/03/07 05:06:14;;;;;;;19.60;9.37;;;-2.90;99.90;;;;;;5051917;28;20048;-66
2021/03/07 05:08:41;;;;;;;22.83;8.50;;;-2.90;99.90;;;;;;5051903;28;20044;-66
2021/03/07 05:11:07;;;;;;;16.83;8.57;;;-3.00;99.90;;;;;;5052362;28;20375;-66
2021/03/07 05:13:35;;;;;;;18.83;9.17;;;-2.90;99.90;;;;;;5051476;28;20048;-66
2021/03/07 05:16:02;;;;;;;18.03;9.23;;;-3.10;99.90;;;;;;5052038;28;20504;-66
2021/03/07 05:18:28;;;;;;;17.87;8.43;;;-3.10;99.90;;;;;;5052038;28;20052;-66
2021/03/07 05:20:55;;;;;;;19.03;10.33;;;-3.10;99.90;;;;;;5052201;28;20091;-67
2021/03/07 05:23:22;;;;;;;19.37;9.00;;;-3.20;99.90;;;;;;5050902;28;20094;-65
2021/03/07 05:25:48;;;;;;;21.10;9.43;;;-3.20;99.90;;;;;;5052216;28;20105;-67
2021/03/07 05:28:15;;;;;;;21.07;9.33;;;-3.20;99.90;;;;;;5051975;28;20055;-66
2021/03/07 05:30:42;;;;;;;20.70;10.60;;;-3.10;99.90;;;;;;5051953;28;20057;-66
2021/03/07 05:33:09;;;;;;;17.37;9.70;;;-3.10;99.90;;;;;;5051194;28;20056;-66
2021/03/07 05:35:35;;;;;;;18.07;8.97;;;-3.20;99.90;;;;;;5052107;28;20071;-65
2021/03/07 05:38:02;;;;;;;20.97;9.43;;;-3.30;99.90;;;;;;5051125;28;20053;-66
2021/03/07 05:40:31;;;;;;;19.00;9.37;;;-3.30;99.90;;;;;;5051982;28;20045;-66
2021/03/07 05:42:58;;;;;;;19.13;9.73;;;-3.40;99.90;;;;;;5051303;28;20469;-66
2021/03/07 05:45:26;;;;;;;17.67;9.40;;;-3.40;99.90;;;;;;5051982;28;20059;-64
2021/03/07 05:47:54;;;;;;;18.43;9.03;;;-3.50;99.90;;;;;;5051024;28;20424;-66
2021/03/07 05:50:21;;;;;;;21.87;8.80;;;-3.40;99.90;;;;;;5051126;28;20071;-66
2021/03/07 05:52:48;;;;;;;18.90;9.50;;;-3.40;99.90;;;;;;5050770;28;20048;-66
2021/03/07 05:55:15;;;;;;;22.70;9.93;;;-3.40;99.90;;;;;;5051346;28;20056;-65
2021/03/07 05:57:45;;;;;;;20.43;9.10;;;-3.40;99.90;;;;;;5051307;28;20048;-64
2021/03/07 06:00:13;;;;;;;19.37;9.13;;;-3.40;99.90;;;;;;5052267;28;20048;-66
2021/03/07 06:02:39;;;;;;;22.40;9.77;;;-3.40;99.90;;;;;;5050361;28;20524;-66
2021/03/07 06:05:09;;;;;;;16.83;9.57;;;-3.40;99.90;;;;;;5051173;28;20048;-66
2021/03/07 06:07:36;;;;;;;26.07;9.43;;;-3.40;99.90;;;;;;5050281;28;20044;-64
2021/03/07 06:10:14;;;;;;;19.80;9.80;;;-3.30;99.90;;;;;;5051270;28;20346;-64
2021/03/07 06:12:41;;;;;;;19.60;9.47;;;-3.30;99.90;;;;;;5050043;28;20731;-65
2021/03/07 06:15:10;;;;;;;16.67;9.07;;;-3.00;99.90;;;;;;5051452;28;20052;-66
2021/03/07 06:17:41;;;;;;;16.07;8.27;;;-2.90;99.90;;;;;;5050761;28;20063;-64
2021/03/07 06:20:11;;;;;;;18.93;9.03;;;-2.90;99.90;;;;;;5050251;28;20053;-65
2021/03/07 06:22:38;;;;;;;17.60;8.87;;;-2.90;99.90;;;;;;5050091;28;20067;-66
2021/03/07 06:25:07;;;;;;;18.23;8.83;;;-3.00;99.90;;;;;;5050985;28;20467;-65
2021/03/07 06:27:33;;;;;;;16.27;8.63;;;-2.90;99.90;;;;;;5050914;28;20052;-66
2021/03/07 06:30:04;;;;;;;17.70;9.90;;;-2.90;99.90;;;;;;5050824;28;20156;-66
2021/03/07 06:32:32;;;;;;;20.23;8.90;;;-2.90;99.90;;;;;;5050639;28;20916;-66
2021/03/07 06:34:59;;;;;;;17.77;9.17;;;-2.90;99.90;;;;;;5050721;28;20079;-64
2021/03/07 06:37:27;;;;;;;22.07;9.57;;;-2.80;99.90;;;;;;5050751;28;20044;-66
2021/03/07 06:39:54;;;;;;;18.87;9.80;;;-2.80;99.90;;;;;;5050656;28;20048;-66
2021/03/07 06:42:21;;;;;;;17.67;8.73;;;-2.80;99.90;;;;;;5049949;28;20048;-66
2021/03/07 06:44:59;;;;;;;18.70;8.97;;;-2.70;99.90;;;;;;5050183;28;20049;-64
2021/03/07 06:47:26;;;;;;;17.83;8.90;;;-2.70;99.90;;;;;;5051342;28;20379;-66
2021/03/07 06:50:18;;;;;;;23.50;9.57;;;-2.60;99.90;;;;;;5050733;28;20059;-66
2021/03/07 06:52:53;;;;;;;22.47;9.03;;;-2.50;99.90;;;;;;5050470;28;20060;-66
2021/03/07 06:55:21;;;;;;;18.43;9.83;;;-2.60;99.90;;;;;;5049588;28;20596;-65
2021/03/07 06:57:48;;;;;;;18.27;9.20;;;-2.60;99.90;;;;;;5050731;28;20129;-65
2021/03/07 07:00:16;;;;;;;20.70;10.13;;;-2.40;99.90;;;;;;5049663;28;20060;-65
2021/03/07 07:03:05;;;;;;;20.00;9.13;;;-2.50;99.90;;;;;;5049559;28;20055;-64
2021/03/07 07:05:38;;;;;;;23.27;9.87;;;-2.30;99.90;;;;;;5050511;28;20913;-64
2021/03/07 07:08:05;;;;;;;20.53;9.50;;;-2.30;99.90;;;;;;5050348;28;20102;-66
2021/03/07 07:11:02;;;;;;;23.70;10.17;;;-2.10;99.90;;;;;;5050759;28;20131;-66
2021/03/07 07:13:30;;;;;;;19.20;9.38;;;-2.10;99.90;;;;;;5049352;28;20095;-65
2021/03/07 07:15:59;;;;;;;19.80;9.83;;;-2.00;99.90;;;;;;5050551;28;20165;-66
2021/03/07 07:18:26;;;;;;;24.00;9.83;;;-1.90;99.90;;;;;;5050466;28;20056;-66
2021/03/07 07:20:53;;;;;;;18.70;9.20;;;-1.90;99.90;;;;;;5054804;28;20413;-66
2021/03/07 07:23:20;;;;;;;21.03;10.07;;;-1.80;99.90;;;;;;5053198;28;20109;-65
2021/03/07 07:25:47;;;;;;;19.33;9.43;;;-1.70;99.90;;;;;;5054255;28;20429;-64
2021/03/07 07:28:14;;;;;;;23.47;11.00;;;-1.60;99.90;;;;;;5053033;28;20053;-66
2021/03/07 07:30:41;;;;;;;18.43;9.93;;;-1.50;99.90;;;;;;5054967;28;20055;-64
2021/03/07 07:33:16;;;;;;;18.97;9.17;;;-1.40;99.90;;;;;;5052881;28;20519;-66
2021/03/07 07:35:44;;;;;;;22.27;10.40;;;-1.20;99.90;;;;;;5053432;28;20062;-66
2021/03/07 07:38:13;;;;;;;19.67;8.77;;;-1.20;99.90;;;;;;5053170;28;20048;-66
2021/03/07 07:40:42;;;;;;;20.87;8.43;;;-1.10;99.90;;;;;;5055177;28;20056;-66
2021/03/07 07:43:09;;;;;;;19.13;9.20;;;-1.10;99.90;;;;;;5056553;28;20053;-65
2021/03/07 07:45:36;;;;;;;18.83;9.20;;;-1.00;99.90;;;;;;5057558;28;20086;-66
2021/03/07 07:48:03;;;;;;;19.53;9.40;;;-0.90;99.90;;;;;;5057881;28;20459;-66
2021/03/07 07:50:37;;;;;;;19.13;8.67;;;-0.70;99.90;;;;;;5057974;28;20079;-66
2021/03/07 07:53:05;;;;;;;21.97;9.27;;;-0.50;99.90;;;;;;5060410;28;20052;-65
2021/03/07 07:55:46;;;;;;;19.20;9.73;;;-0.50;99.90;;;;;;5058109;28;20045;-66
2021/03/07 07:58:45;;;;;;;23.03;9.57;;;-0.40;99.90;;;;;;5057099;28;20524;-65
2021/03/07 08:01:13;;;;;;;20.27;9.50;;;-0.20;99.90;;;;;;5045157;28;20056;-66
2021/03/07 08:03:41;;;;;;;20.67;9.90;;;-0.10;99.90;;;;;;5057029;28;20536;-66
2021/03/07 08:06:08;;;;;;;21.27;10.20;;;0.00;99.90;;;;;;5057614;28;20051;-66
2021/03/07 08:08:37;;;;;;;23.00;10.93;;;0.20;99.90;;;;;;5057127;28;20513;-64
2021/03/07 08:11:05;;;;;;;19.17;9.37;;;0.20;99.90;;;;;;5057434;28;20060;-66
2021/03/07 08:13:49;;;;;;;18.97;10.20;;;0.30;99.90;;;;;;5056149;28;20091;-65
2021/03/07 08:16:39;;;;;;;18.70;9.50;;;0.50;99.90;;;;;;5059554;28;20057;-64
2021/03/07 08:19:06;;;;;;;21.73;10.23;;;0.70;99.90;;;;;;5057354;28;20045;-65
2021/03/07 08:21:57;;;;;;;20.60;10.33;;;1.00;99.90;;;;;;5056760;28;20061;-65
2021/03/07 08:24:24;;;;;;;18.67;9.77;;;1.50;99.90;;;;;;5056528;28;20049;-65
2021/03/07 08:27:00;;;;;;;20.43;9.33;;;2.80;99.90;;;;;;5056673;28;20052;-66
2021/03/07 08:29:48;;;;;;;17.00;10.07;;;3.90;99.90;;;;;;5058246;28;20044;-66
2021/03/07 08:32:33;;;;;;;17.85;9.05;;;5.20;99.90;;;;;;5058737;28;20056;-66
2021/03/07 08:35:01;;;;;;;16.83;8.75;;;6.30;99.90;;;;;;5060168;28;20086;-67
2021/03/07 08:37:30;;;;;;;15.65;8.48;;;7.20;99.90;;;;;;5060198;28;20102;-67
2021/03/07 08:40:26;;;;;;;13.68;9.18;;;7.80;99.90;;;;;;5060201;28;20493;-67
2021/03/07 08:42:54;;;;;;;15.93;9.18;;;8.40;99.90;;;;;;5059251;28;20139;-67
2021/03/07 08:45:22;;;;;;;16.48;9.35;;;8.60;99.10;;;;;;5059562;28;20098;-68
2021/03/07 08:47:56;;;;;;;13.35;7.95;;;9.40;95.50;;;;;;5059266;28;20059;-67
2021/03/07 08:50:24;;;;;;;13.52;8.85;;;9.70;91.40;;;;;;5058905;28;20044;-68
2021/03/07 08:52:51;;;;;;;15.43;9.10;;;10.30;89.40;;;;;;5058823;28;20049;-68
2021/03/07 08:55:18;;;;;;;12.45;8.02;;;11.10;85.20;;;;;;5059154;28;20044;-67
2021/03/07 08:57:45;;;;;;;15.63;8.02;;;11.50;77.50;;;;;;5059332;28;20368;-68
2021/03/07 09:00:15;;;;;;;15.35;8.20;;;12.30;73.10;;;;;;5058708;28;20044;-69
2021/03/07 09:02:42;;;;;;;13.05;8.30;;;12.80;68.30;;;;;;5058638;28;20049;-68
2021/03/07 09:05:25;;;;;;;13.00;9.00;;;12.90;66.80;;;;;;5059319;28;20534;-68
2021/03/07 09:08:01;;;;;;;13.15;8.60;;;13.40;62.80;;;;;;5059603;28;20716;-67
2021/03/07 09:10:36;;;;;;;11.43;7.80;;;14.20;59.60;;;;;;5058555;28;20114;-68
2021/03/07 09:13:11;;;;;;;13.10;8.05;;;14.50;56.90;;;;;;5057835;28;20053;-69
2021/03/07 09:15:40;;;;;;;13.25;8.35;;;15.20;56.30;;;;;;5058250;28;20108;-70
2021/03/07 09:18:07;;;;;;;15.35;8.45;;;15.40;55.00;;;;;;5057993;28;20048;-69
2021/03/07 09:20:46;;;;;;;13.13;9.10;;;15.70;54.20;;;;;;5058761;28;20045;-69
2021/03/07 09:23:34;;;;;;;13.30;8.55;;;15.70;53.10;;;;;;5056774;28;20052;-68
2021/03/07 09:26:04;;;;;;;12.60;8.70;;;16.40;52.40;;;;;;5058023;28;20056;-69
2021/03/07 09:28:37;;;;;;;12.48;7.93;;;16.30;50.90;;;;;;5058049;28;20428;-68
2021/03/07 09:31:08;;;;;;;10.45;7.53;;;16.50;50.30;;;;;;5058337;28;20056;-69
2021/03/07 09:33:34;;;;;;;15.65;8.40;;;16.50;49.40;;;;;;5057466;28;20098;-69
2021/03/07 09:36:07;;;;;;;13.20;8.43;;;16.40;49.80;;;;;;5057037;28;20048;-69
2021/03/07 09:38:45;;;;;;;10.57;7.25;;;17.20;48.20;;;;;;5056458;28;20048;-69
2021/03/07 09:41:13;;;;;;;11.30;7.75;;;16.90;48.10;;;;;;5056378;28;20492;-69
2021/03/07 09:43:41;;;;;;;13.38;8.30;;;17.10;48.10;;;;;;5055092;28;20060;-69
2021/03/07 09:46:11;;;;;;;12.50;8.30;;;17.90;48.00;;;;;;5056101;28;20098;-69
2021/03/07 09:48:38;;;;;;;12.82;7.90;;;18.20;47.50;;;;;;5055570;28;20064;-69
2021/03/07 09:51:06;;;;;;;13.60;8.38;;;17.80;46.90;;;;;;5055467;28;20052;-69
2021/03/07 09:53:35;;;;;;;12.85;8.02;;;18.00;45.80;;;;;;5054606;28;20075;-69
2021/03/07 09:56:02;;;;;;;11.77;8.15;;;18.50;46.20;;;;;;5055476;28;20056;-69
2021/03/07 09:58:36;;;;;;;14.90;8.32;;;18.40;45.90;;;;;;5055855;28;20052;-69
2021/03/07 10:01:06;;;;;;;12.50;7.18;;;18.80;46.10;;;;;;5056170;28;20554;-69
2021/03/07 10:03:34;;;;;;;14.90;8.30;;;19.10;45.40;;;;;;5054444;28;20501;-69
2021/03/07 10:06:10;;;;;;;12.70;7.90;;;19.30;45.10;;;;;;5056220;28;20139;-67
2021/03/07 10:08:37;;;;;;;13.82;7.95;;;19.70;44.50;;;;;;5057818;28;20056;-67
2021/03/07 10:11:19;;;;;;;10.52;7.65;;;19.90;43.90;;;;;;5056914;28;20505;-67
2021/03/07 10:13:56;;;;;;;12.35;8.35;;;19.90;42.50;;;;;;5056799;28;20075;-70
2021/03/07 10:16:27;;;;;;;12.07;7.55;;;20.40;42.20;;;;;;5056959;28;20097;-67
2021/03/07 10:19:12;;;;;;;11.07;7.75;;;20.50;41.90;;;;;;5057538;28;20053;-69
2021/03/07 10:21:39;;;;;;;10.70;7.15;;;20.20;42.10;;;;;;5057049;28;20056;-70
2021/03/07 10:24:12;;;;;;;9.52;6.85;;;19.70;41.10;;;;;;5056559;28;20052;-70
2021/03/07 10:26:40;;;;;;;10.43;6.70;;;18.60;41.20;;;;;;5060518;28;20098;-70
2021/03/07 10:29:29;;;;;;;10.23;6.68;;;19.90;41.80;;;;;;5059792;28;20067;-70
2021/03/07 10:32:04;;;;;;;12.05;6.45;;;19.90;40.70;;;;;;5059021;28;20098;-70
2021/03/07 10:34:35;;;;;;;9.50;6.18;;;20.70;40.50;;;;;;5057124;28;20118;-70
2021/03/07 10:37:02;;;;;;;12.98;6.30;;;20.40;39.50;;;;;;5057548;28;20734;-70
2021/03/07 10:39:29;;;;;;;10.10;6.75;;;20.50;38.70;;;;;;5057539;28;20056;-70
2021/03/07 10:42:10;;;;;;;10.32;6.53;;;21.30;39.50;;;;;;5057068;28;20070;-70
2021/03/07 10:44:37;;;;;;;11.23;7.05;;;21.90;39.00;;;;;;5057019;28;20520;-70
2021/03/07 10:47:17;;;;;;;11.00;6.72;;;22.00;38.50;;;;;;5057032;28;20052;-70
2021/03/07 10:49:50;;;;;;;9.15;6.07;;;22.50;38.20;;;;;;5056355;28;20139;-70
2021/03/07 10:52:17;;;;;;;9.35;5.90;;;21.20;37.10;;;;;;5056753;28;20045;-70
2021/03/07 10:54:44;;;;;;;10.38;6.30;;;20.80;38.20;;;;;;5059956;28;20060;-70
2021/03/07 10:57:12;;;;;;;9.25;6.00;;;21.90;38.10;;;;;;5061447;28;20055;-70
2021/03/07 10:59:39;;;;;;;9.88;6.43;;;22.00;37.50;;;;;;5060843;28;20045;-70
2021/03/07 11:02:08;;;;;;;8.65;5.80;;;22.30;36.90;;;;;;5060890;28;20048;-70
2021/03/07 11:04:34;;;;;;;11.35;5.90;;;22.00;36.40;;;;;;5059809;28;20048;-67
2021/03/07 11:07:02;;;;;;;8.93;5.57;;;22.60;37.00;;;;;;5058323;28;20056;-70
2021/03/07 11:09:29;;;;;;;10.30;5.78;;;22.70;36.10;;;;;;5059339;28;20048;-70
2021/03/07 11:11:55;;;;;;;9.35;5.68;;;22.80;36.10;;;;;;5059186;28;20053;-70
2021/03/07 11:14:22;;;;;;;8.23;5.78;;;22.80;36.10;;;;;;5058898;28;20336;-70
2021/03/07 11:16:48;;;;;;;9.43;5.60;;;22.90;35.40;;;;;;5058663;28;20055;-70
2021/03/07 11:19:15;;;;;;;9.73;5.20;;;22.80;35.40;;;;;;5058400;28;20044;-70
2021/03/07 11:21:41;;;;;;;7.75;4.90;;;22.60;34.20;;;;;;5058967;28;20084;-70
2021/03/07 11:24:09;;;;;;;8.52;5.18;;;22.10;34.30;;;;;;5057934;28;20114;-70
2021/03/07 11:26:36;;;;;;;8.65;5.00;;;22.30;35.40;;;;;;5059457;28;20059;-70
2021/03/07 11:29:03;;;;;;;7.80;4.53;;;21.90;33.30;;;;;;5058985;28;20098;-70
2021/03/07 11:31:29;;;;;;;8.32;5.43;;;21.80;33.70;;;;;;5058814;28;20052;-69
2021/03/07 11:33:56;;;;;;;6.95;4.38;;;22.40;35.10;;;;;;5058719;28;20113;-69
2021/03/07 11:36:22;;;;;;;8.57;5.18;;;22.40;33.90;;;;;;5062660;28;20044;-70
2021/03/07 11:38:49;;;;;;;7.78;4.53;;;22.50;33.30;;;;;;5060554;28;20048;-70
2021/03/07 11:41:16;;;;;;;8.35;4.72;;;21.60;31.80;;;;;;5060257;28;20394;-70
2021/03/07 11:43:43;;;;;;;7.85;4.88;;;21.30;32.70;;;;;;5059672;28;20874;-69
2021/03/07 11:46:09;;;;;;;6.88;4.57;;;20.50;33.20;;;;;;5059521;28;20060;-70
2021/03/07 11:48:36;;;;;;;7.05;4.47;;;21.10;33.80;;;;;;5059995;28;20490;-67
2021/03/07 11:51:03;;;;;;;10.45;4.72;;;21.60;33.90;;;;;;5058513;28;21179;-68
2021/03/07 11:53:29;;;;;;;8.80;4.60;;;22.20;33.50;;;;;;5059191;28;20048;-68
2021/03/07 11:55:56;;;;;;;10.25;5.03;;;22.10;33.50;;;;;;5059575;28;20463;-68
2021/03/07 11:58:23;;;;;;;8.30;4.68;;;22.30;34.00;;;;;;5059595;28;20139;-68
2021/03/07 12:00:50;;;;;;;8.23;4.93;;;21.70;34.30;;;;;;5058450;28;20048;-68
2021/03/07 12:03:16;;;;;;;8.35;4.93;;;22.80;32.70;;;;;;5058793;28;20064;-68
2021/03/07 12:05:43;;;;;;;8.75;4.75;;;22.70;33.60;;;;;;5057699;28;20056;-68
2021/03/07 12:08:09;;;;;;;7.95;4.88;;;22.70;32.60;;;;;;5058824;28;20055;-68
2021/03/07 12:10:36;;;;;;;7.50;4.55;;;22.60;32.20;;;;;;5058701;28;20051;-68
2021/03/07 12:13:03;;;;;;;8.05;4.43;;;21.40;34.20;;;;;;5057396;28;20055;-68
2021/03/07 12:15:31;;;;;;;8.77;4.90;;;21.50;32.90;;;;;;5059195;28;20051;-68
2021/03/07 12:17:57;;;;;;;6.72;4.05;;;21.60;32.60;;;;;;5058471;28;20048;-68
2021/03/07 12:20:24;;;;;;;7.43;3.80;;;21.90;33.00;;;;;;5058141;28;20052;-68
2021/03/07 12:22:50;;;;;;;10.20;4.88;;;22.70;33.10;;;;;;5057564;28;20056;-68
2021/03/07 12:25:17;;;;;;;8.27;4.40;;;22.30;33.70;;;;;;5058024;28;20497;-68
2021/03/07 12:27:43;;;;;;;8.57;4.35;;;22.30;34.00;;;;;;5058859;28;20048;-68
2021/03/07 12:30:11;;;;;;;8.85;4.53;;;22.50;33.50;;;;;;5058241;28;20551;-68
2021/03/07 12:32:39;;;;;;;6.65;4.13;;;22.80;33.60;;;;;;5056846;28;20072;-68
2021/03/07 12:35:07;;;;;;;7.30;4.22;;;22.40;33.10;;;;;;5058858;28;20079;-68
2021/03/07 12:37:33;;;;;;;8.68;4.70;;;22.30;32.80;;;;;;5058513;28;20055;-68
2021/03/07 12:40:00;;;;;;;8.35;4.40;;;22.40;34.00;;;;;;5057408;28;20219;-68
2021/03/07 12:42:26;;;;;;;8.30;4.65;;;22.60;34.60;;;;;;5057204;28;20424;-68
2021/03/07 12:44:53;;;;;;;7.25;4.22;;;22.50;32.70;;;;;;5057795;28;20055;-68
2021/03/07 12:47:20;;;;;;;6.20;3.85;;;22.60;32.40;;;;;;5057399;28;20056;-69